createdAt,value
2022-11-05T00:00:11.943Z,1.22
2022-11-05T00:03:04.144Z,1.23
2022-11-05T00:05:55.188Z,1.24
2022-11-05T00:08:46.338Z,1.25
2022-11-05T00:11:18.850Z,1.26
2022-11-05T00:14:09.972Z,1.27
2022-11-05T00:16:45.403Z,1.25
2022-11-05T00:19:19.174Z,1.29
2022-11-05T00:22:10.294Z,1.25
2022-11-05T00:25:01.466Z,1.28
2022-11-05T00:27:34.484Z,1.29
2022-11-05T00:30:12.152Z,1.28
2022-11-05T00:32:45.853Z,1.29
2022-11-05T00:35:22.035Z,1.29
2022-11-05T00:37:54.453Z,1.32
2022-11-05T00:40:26.891Z,1.32
2022-11-05T00:43:18.037Z,1.33
2022-11-05T00:45:50.492Z,1.33
2022-11-05T00:48:41.571Z,1.27
2022-11-05T00:51:15.408Z,1.33
2022-11-05T00:53:47.885Z,1.33
2022-11-05T00:56:20.284Z,1.33
2022-11-05T00:58:52.641Z,1.36
2022-11-05T01:01:25.091Z,1.37
2022-11-05T01:03:57.596Z,1.38
2022-11-05T01:06:31.416Z,1.40
2022-11-05T01:09:03.895Z,1.40
2022-11-05T01:11:37.374Z,1.38
2022-11-05T01:14:11.733Z,1.38
2022-11-05T01:16:45.494Z,1.44
2022-11-05T01:19:17.899Z,1.44
2022-11-05T01:21:51.679Z,1.46
2022-11-05T01:24:24.154Z,1.46
2022-11-05T01:26:56.803Z,1.46
2022-11-05T01:29:29.222Z,1.47
2022-11-05T01:32:01.901Z,1.47
2022-11-05T01:34:34.535Z,1.47
2022-11-05T01:37:08.577Z,1.49
2022-11-05T01:39:41.007Z,1.48
2022-11-05T01:42:20.269Z,1.42
2022-11-05T01:45:01.679Z,1.49
2022-11-05T01:47:47.636Z,1.50
2022-11-05T01:50:32.402Z,1.51
2022-11-05T01:53:20.105Z,1.51
2022-11-05T01:55:58.037Z,1.48
2022-11-05T01:58:34.836Z,1.52
2022-11-05T02:01:07.291Z,1.52
2022-11-05T02:03:40.306Z,1.51
2022-11-05T02:06:16.279Z,1.48
2022-11-05T02:08:57.367Z,1.45
2022-11-05T02:11:30.048Z,1.51
2022-11-05T02:14:04.036Z,1.51
2022-11-05T02:16:41.839Z,1.51
2022-11-05T02:19:59.738Z,1.51
2022-11-05T02:23:03.788Z,1.50
2022-11-05T02:26:03.117Z,1.51
2022-11-05T02:28:59.894Z,1.51
2022-11-05T02:31:41.892Z,1.51
2022-11-05T02:34:24.608Z,1.51
2022-11-05T02:37:02.401Z,1.47
2022-11-05T02:39:43.175Z,1.52
2022-11-05T02:42:29.303Z,1.54
2022-11-05T02:45:10.766Z,1.49
2022-11-05T02:47:47.759Z,1.55
2022-11-05T02:50:30.122Z,1.53
2022-11-05T02:53:09.108Z,1.55
2022-11-05T02:55:46.090Z,1.55
2022-11-05T02:58:18.536Z,1.56
2022-11-05T03:00:52.260Z,1.56
2022-11-05T03:03:29.807Z,1.51
2022-11-05T03:06:21.456Z,1.53
2022-11-05T03:09:15.596Z,1.54
2022-11-05T03:12:02.215Z,1.57
2022-11-05T03:14:43.888Z,1.57
2022-11-05T03:17:26.731Z,1.58
2022-11-05T03:20:07.552Z,1.58
2022-11-05T03:22:46.876Z,1.57
2022-11-05T03:25:23.115Z,1.57
2022-11-05T03:28:03.789Z,1.54
2022-11-05T03:30:39.699Z,1.57
2022-11-05T03:33:20.467Z,1.56
2022-11-05T03:35:57.639Z,1.59
2022-11-05T03:38:35.380Z,1.60
2022-11-05T03:41:12.509Z,1.61
2022-11-05T03:43:54.822Z,1.61
2022-11-05T03:46:31.935Z,1.61
2022-11-05T03:49:08.271Z,1.60
2022-11-05T03:51:49.777Z,1.62
2022-11-05T03:54:22.851Z,1.62
2022-11-05T03:57:02.894Z,1.59
2022-11-05T03:59:42.127Z,1.61
2022-11-05T04:02:17.962Z,1.56
2022-11-05T04:04:51.101Z,1.62
2022-11-05T04:07:43.383Z,1.63
2022-11-05T04:10:34.643Z,1.63
2022-11-05T04:13:24.472Z,1.62
2022-11-05T04:16:15.679Z,1.58
2022-11-05T04:18:48.035Z,1.61
2022-11-05T04:21:49.475Z,1.57
2022-11-05T04:24:23.336Z,1.62
2022-11-05T04:26:55.784Z,1.63
2022-11-05T04:29:46.483Z,1.61
2022-11-05T04:54:04.400Z,1.61
2022-11-05T04:56:36.857Z,1.60
2022-11-05T04:59:09.335Z,1.61
2022-11-05T05:01:41.844Z,1.64
2022-11-05T05:04:14.706Z,1.65
2022-11-05T05:06:47.230Z,1.66
2022-11-05T05:09:21.293Z,1.67
2022-11-05T05:11:53.823Z,1.68
2022-11-05T05:14:26.272Z,1.69
2022-11-05T05:16:58.731Z,1.71
2022-11-05T05:19:51.223Z,1.73
2022-11-05T05:22:23.658Z,1.74
2022-11-05T05:24:57.466Z,1.76
2022-11-05T05:27:30.579Z,1.78
2022-11-05T05:30:03.634Z,1.81
2022-11-05T05:32:36.483Z,1.82
2022-11-05T05:35:10.269Z,1.83
2022-11-05T05:37:42.745Z,1.83
2022-11-05T05:40:16.955Z,1.84
2022-11-05T05:42:53.987Z,1.87
2022-11-05T05:45:26.424Z,1.88
2022-11-05T05:47:59.002Z,1.86
2022-11-05T05:50:31.695Z,1.90
2022-11-05T05:53:12.834Z,1.90
2022-11-05T05:55:46.745Z,1.90
2022-11-05T05:58:19.152Z,1.92
2022-11-05T06:00:51.730Z,1.94
2022-11-05T06:03:24.139Z,1.94
2022-11-05T06:06:00.670Z,1.94
2022-11-05T06:08:33.654Z,1.98
2022-11-05T06:11:08.743Z,2.02
2022-11-05T06:13:41.243Z,2.04
2022-11-05T06:16:13.729Z,2.08
2022-11-05T06:18:46.732Z,2.08
2022-11-05T06:21:19.541Z,2.13
2022-11-05T06:23:51.978Z,2.13
2022-11-05T06:26:25.872Z,2.14
2022-11-05T06:28:58.388Z,2.08
2022-11-05T06:31:30.917Z,2.13
2022-11-05T06:34:03.385Z,2.12
2022-11-05T06:36:35.765Z,2.11
2022-11-05T06:39:11.750Z,2.10
2022-11-05T06:42:11.979Z,2.11
2022-11-05T06:44:38.345Z,2.13
2022-11-05T06:47:11.897Z,2.16
2022-11-05T06:49:44.408Z,2.14
2022-11-05T06:52:17.240Z,2.13
2022-11-05T06:54:49.727Z,2.13
2022-11-05T06:57:23.561Z,2.13
2022-11-05T07:00:01.338Z,2.14
2022-11-05T07:02:36.106Z,2.15
2022-11-05T07:05:11.396Z,2.14
2022-11-05T07:07:45.312Z,2.15
2022-11-05T07:10:18.947Z,2.13
2022-11-05T07:12:53.004Z,2.12
2022-11-05T07:15:25.562Z,2.14
2022-11-05T07:17:59.229Z,2.19
2022-11-05T07:20:34.273Z,2.22
2022-11-05T07:23:10.787Z,2.22
2022-11-05T07:25:43.735Z,2.21
2022-11-05T07:28:17.588Z,2.20
2022-11-05T07:30:50.113Z,2.18
2022-11-05T07:33:22.869Z,2.18
2022-11-05T07:35:56.437Z,2.12
2022-11-05T07:38:28.958Z,2.11
2022-11-05T07:41:01.516Z,2.03
2022-11-05T07:43:35.525Z,2.02
2022-11-05T07:46:13.520Z,1.91
2022-11-05T07:48:46.233Z,1.98
2022-11-05T07:51:18.656Z,1.97
2022-11-05T07:53:51.329Z,2.00
2022-11-05T07:56:24.099Z,1.97
2022-11-05T07:58:58.066Z,1.99
2022-11-05T08:01:30.602Z,1.94
2022-11-05T08:04:03.417Z,1.95
2022-11-05T08:06:35.970Z,1.95
2022-11-05T08:09:09.144Z,2.00
2022-11-05T08:11:41.547Z,2.00
2022-11-05T08:14:15.557Z,1.90
2022-11-05T08:16:48.066Z,1.90
2022-11-05T08:19:20.604Z,2.00
2022-11-05T08:21:53.012Z,1.98
2022-11-05T08:24:25.634Z,1.99
2022-11-05T08:26:58.059Z,1.98
2022-11-05T08:29:31.922Z,1.99
2022-11-05T08:32:04.452Z,2.00
2022-11-05T08:34:37.033Z,1.99
2022-11-05T08:37:09.464Z,1.99
2022-11-05T08:39:41.857Z,2.00
2022-11-05T08:42:14.514Z,2.01
2022-11-05T08:44:48.515Z,2.03
2022-11-05T08:47:20.908Z,2.05
2022-11-05T08:49:54.741Z,2.07
2022-11-05T08:52:27.279Z,2.05
2022-11-05T08:54:59.944Z,2.10
2022-11-05T08:57:32.447Z,2.13
2022-11-05T09:00:07.810Z,2.11
2022-11-05T09:02:40.536Z,2.10
2022-11-05T09:05:13.128Z,2.13
2022-11-05T09:07:46.835Z,2.15
2022-11-05T09:10:19.272Z,2.14
2022-11-05T09:12:51.758Z,2.19
2022-11-05T09:15:25.857Z,2.20
2022-11-05T09:17:59.855Z,2.21
2022-11-05T09:20:32.908Z,2.20
2022-11-05T09:23:05.381Z,2.20
2022-11-05T09:25:38.166Z,2.22
2022-11-05T09:28:17.243Z,2.23
2022-11-05T09:30:52.875Z,2.26
2022-11-05T09:33:27.188Z,2.29
2022-11-05T09:36:00.441Z,2.31
2022-11-05T09:38:35.006Z,2.33
2022-11-05T09:41:13.241Z,2.35
2022-11-05T09:43:50.707Z,2.32
2022-11-05T09:46:26.589Z,2.34
2022-11-05T09:49:04.377Z,2.36
2022-11-05T09:51:37.321Z,2.39
2022-11-05T09:54:12.257Z,2.39
2022-11-05T09:56:46.803Z,2.42
2022-11-05T09:59:22.868Z,2.44
2022-11-05T10:02:04.075Z,2.44
2022-11-05T10:04:37.376Z,2.42
2022-11-05T10:07:16.379Z,2.39
2022-11-05T10:09:53.083Z,2.37
2022-11-05T10:12:31.010Z,2.34
2022-11-05T10:15:11.541Z,2.33
2022-11-05T10:17:50.041Z,2.31
2022-11-05T10:20:31.601Z,2.29
2022-11-05T10:23:11.448Z,2.32
2022-11-05T10:25:47.257Z,2.34
2022-11-05T10:28:22.264Z,2.36
2022-11-05T10:30:59.174Z,2.39
2022-11-05T10:33:35.988Z,2.39
2022-11-05T10:36:11.892Z,2.40
2022-11-05T10:38:44.498Z,2.41
2022-11-05T10:41:39.229Z,2.44
2022-11-05T10:44:26.163Z,2.48
2022-11-05T10:47:12.533Z,2.51
2022-11-05T10:49:57.160Z,2.46
2022-11-05T10:52:34.870Z,2.45
2022-11-05T10:55:15.893Z,2.51
2022-11-05T10:57:49.701Z,2.50
2022-11-05T11:00:25.875Z,2.48
2022-11-05T11:03:00.796Z,2.43
2022-11-05T11:05:38.252Z,2.40
2022-11-05T11:08:24.394Z,2.37
2022-11-05T11:10:59.655Z,2.34
2022-11-05T11:13:50.005Z,2.31
2022-11-05T11:16:24.326Z,2.30
2022-11-05T11:19:00.821Z,2.34
2022-11-05T11:21:35.028Z,2.35
2022-11-05T11:24:20.857Z,2.36
2022-11-05T11:26:53.327Z,2.40
2022-11-05T11:29:28.619Z,2.39
2022-11-05T11:32:01.277Z,2.36
2022-11-05T11:34:36.102Z,2.30
2022-11-05T11:37:19.164Z,2.24
2022-11-05T11:39:55.263Z,2.21
2022-11-05T11:42:31.843Z,2.18
2022-11-05T11:45:14.728Z,2.11
2022-11-05T11:47:50.006Z,2.10
2022-11-05T11:50:39.227Z,2.15
2022-11-05T11:53:36.774Z,2.15
2022-11-05T11:56:19.969Z,2.20
2022-11-05T11:58:54.160Z,2.21
2022-11-05T12:02:01.127Z,2.10
2022-11-05T12:05:13.898Z,2.19
2022-11-05T12:07:53.083Z,2.14
2022-11-05T12:10:48.404Z,2.10
2022-11-05T12:13:58.055Z,2.05
2022-11-05T12:16:45.962Z,2.05
2022-11-05T12:19:29.874Z,2.05
2022-11-05T12:22:10.138Z,2.06
2022-11-05T12:25:11.767Z,2.07
2022-11-05T12:28:03.787Z,2.07
2022-11-05T12:30:48.859Z,2.04
2022-11-05T12:33:33.293Z,1.92
2022-11-05T12:36:21.918Z,1.78
2022-11-05T12:39:23.542Z,1.48
2022-11-05T12:42:03.258Z,2.04
2022-11-05T12:44:56.121Z,2.05
2022-11-05T12:47:42.146Z,2.05
2022-11-05T12:50:24.619Z,2.00
2022-11-05T12:53:15.203Z,2.00
2022-11-05T12:55:49.676Z,1.99
2022-11-05T12:58:28.837Z,1.94
2022-11-05T13:01:09.461Z,1.95
2022-11-05T13:03:46.568Z,2.00
2022-11-05T13:06:24.500Z,2.00
2022-11-05T13:09:01.555Z,1.99
2022-11-05T13:11:39.995Z,2.02
2022-11-05T13:14:16.692Z,2.03
2022-11-05T13:16:55.292Z,2.03
2022-11-05T13:19:32.345Z,2.00
2022-11-05T13:22:13.677Z,2.04
2022-11-05T13:24:49.511Z,2.08
2022-11-05T13:27:43.157Z,2.07
2022-11-05T13:30:19.319Z,2.09
2022-11-05T13:33:00.201Z,2.08
2022-11-05T13:35:38.293Z,2.07
2022-11-05T13:38:39.221Z,2.06
2022-11-05T13:41:22.921Z,2.06
2022-11-05T13:44:24.521Z,2.04
2022-11-05T13:47:13.793Z,2.05
2022-11-05T13:50:18.485Z,2.04
2022-11-05T13:53:20.448Z,1.99
2022-11-05T13:56:02.074Z,1.99
2022-11-05T13:58:56.768Z,1.97
2022-11-05T14:01:43.787Z,1.96
2022-11-05T14:04:27.916Z,1.93
2022-11-05T14:07:16.212Z,1.91
2022-11-05T14:09:55.347Z,1.91
2022-11-05T14:12:32.008Z,1.90
2022-11-05T14:15:09.806Z,1.90
2022-11-05T14:17:57.564Z,1.91
2022-11-05T14:20:45.009Z,1.87
2022-11-05T14:23:52.631Z,1.86
2022-11-05T14:26:26.961Z,1.86
2022-11-05T14:29:23.191Z,1.86
2022-11-05T14:32:13.603Z,1.85
2022-11-05T14:34:48.936Z,1.89
2022-11-05T14:37:30.457Z,1.88
2022-11-05T14:40:30.392Z,1.89
2022-11-05T14:43:06.280Z,1.90
2022-11-05T14:45:41.107Z,1.89
2022-11-05T14:48:30.759Z,1.91
2022-11-05T14:51:19.715Z,1.92
2022-11-05T14:54:01.014Z,1.93
2022-11-05T14:56:44.877Z,1.90
2022-11-05T14:59:49.700Z,1.88
2022-11-05T15:02:26.726Z,1.86
2022-11-05T15:05:37.053Z,1.91
2022-11-05T15:08:30.473Z,1.91
2022-11-05T15:11:15.472Z,1.90
2022-11-05T15:14:02.023Z,1.86
2022-11-05T15:16:40.603Z,1.87
2022-11-05T15:19:20.598Z,1.84
2022-11-05T15:21:57.258Z,1.89
2022-11-05T15:24:31.547Z,1.88
2022-11-05T15:27:12.967Z,1.89
2022-11-05T15:29:46.852Z,1.89
2022-11-05T15:32:23.808Z,1.90
2022-11-05T15:34:56.539Z,1.90
2022-11-05T15:37:29.024Z,1.93
2022-11-05T15:40:01.665Z,1.94
2022-11-05T15:42:34.253Z,1.93
2022-11-05T15:45:20.611Z,1.93
2022-11-05T15:47:53.108Z,1.95
2022-11-05T15:50:25.627Z,1.92
2022-11-05T15:53:09.474Z,1.91
2022-11-05T15:55:56.807Z,1.93
2022-11-05T15:58:29.407Z,1.92
2022-11-05T16:01:03.388Z,1.94
2022-11-05T16:03:39.524Z,1.93
2022-11-05T16:06:12.193Z,1.93
2022-11-05T16:08:48.597Z,1.93
2022-11-05T16:11:22.596Z,1.93
2022-11-05T16:14:15.391Z,1.93
2022-11-05T16:16:49.428Z,1.89
2022-11-05T16:19:40.284Z,1.87
2022-11-05T16:22:13.462Z,1.86
2022-11-05T16:24:47.646Z,1.87
2022-11-05T16:27:22.381Z,1.86
2022-11-05T16:29:56.699Z,1.87
2022-11-05T16:32:31.868Z,1.87
2022-11-05T16:35:07.234Z,1.86
2022-11-05T16:37:46.401Z,1.86
2022-11-05T16:40:24.158Z,1.85
2022-11-05T16:43:17.590Z,1.90
2022-11-05T16:45:53.125Z,1.87
2022-11-05T16:48:30.993Z,1.89
2022-11-05T16:51:03.772Z,1.87
2022-11-05T16:53:36.263Z,1.87
2022-11-05T16:56:14.573Z,1.88
2022-11-05T16:58:49.300Z,1.88
2022-11-05T17:01:23.574Z,1.82
2022-11-05T17:03:57.685Z,1.84
2022-11-05T17:06:30.225Z,1.83
2022-11-05T17:09:02.830Z,1.85
2022-11-05T17:11:35.409Z,1.84
2022-11-05T17:14:09.710Z,1.86
2022-11-05T17:16:42.218Z,1.86
2022-11-05T17:19:16.459Z,1.83
2022-11-05T17:21:50.269Z,1.86
2022-11-05T17:24:22.898Z,1.85
2022-11-05T17:26:55.558Z,1.75
2022-11-05T17:29:28.229Z,1.85
2022-11-05T17:32:00.781Z,1.85
2022-11-05T17:34:34.828Z,1.82
2022-11-05T17:37:07.212Z,1.82
2022-11-05T17:39:39.841Z,1.80
2022-11-05T17:42:12.587Z,1.80
2022-11-05T17:44:45.047Z,1.78
2022-11-05T17:47:17.629Z,1.78
2022-11-05T17:49:51.649Z,1.74
2022-11-05T17:52:24.228Z,1.73
2022-11-05T17:54:56.712Z,1.72
2022-11-05T17:57:29.173Z,1.73
2022-11-05T18:00:01.862Z,1.74
2022-11-05T18:02:43.624Z,1.75
2022-11-05T18:05:17.761Z,1.75
2022-11-05T18:07:50.806Z,1.70
2022-11-05T18:10:23.959Z,1.66
2022-11-05T18:12:56.511Z,1.70
2022-11-05T18:15:29.150Z,1.69
2022-11-05T18:18:03.064Z,1.68
2022-11-05T18:20:37.437Z,1.73
2022-11-05T18:23:10.295Z,1.73
2022-11-05T18:25:43.701Z,1.73
2022-11-05T18:28:16.221Z,1.74
2022-11-05T18:30:48.971Z,1.71
2022-11-05T18:33:21.658Z,1.75
2022-11-05T18:35:55.566Z,1.76
2022-11-05T18:38:28.102Z,1.75
2022-11-05T18:41:06.438Z,1.72
2022-11-05T18:43:38.897Z,1.69
2022-11-05T18:46:29.375Z,1.65
2022-11-05T18:49:04.249Z,1.63
2022-11-05T18:51:38.386Z,1.63
2022-11-05T18:54:11.120Z,1.62
2022-11-05T18:56:46.700Z,1.63
2022-11-05T18:59:36.652Z,1.62
2022-11-05T19:02:11.649Z,1.63
2022-11-05T19:05:06.602Z,1.53
2022-11-05T19:07:39.618Z,1.63
2022-11-05T19:10:12.092Z,1.61
2022-11-05T19:12:44.704Z,1.61
2022-11-05T19:15:17.714Z,1.65
2022-11-05T19:17:50.259Z,1.64
2022-11-05T19:20:23.128Z,1.64
2022-11-05T19:22:57.318Z,1.66
2022-11-05T19:25:29.979Z,1.65
2022-11-05T19:28:03.079Z,1.68
2022-11-05T19:30:37.631Z,1.68
2022-11-05T19:33:10.318Z,1.70
2022-11-05T19:35:42.862Z,1.70
2022-11-05T19:38:16.658Z,1.72
2022-11-05T19:40:49.476Z,1.72
2022-11-05T19:43:22.153Z,1.70
2022-11-05T19:45:54.992Z,1.67
2022-11-05T19:48:27.860Z,1.70
2022-11-05T19:51:00.577Z,1.70
2022-11-05T19:53:36.570Z,1.69
2022-11-05T19:56:11.419Z,1.70
2022-11-05T19:58:44.298Z,1.70
2022-11-05T20:01:18.367Z,1.68
2022-11-05T20:03:51.964Z,1.71
2022-11-05T20:06:28.877Z,1.71
2022-11-05T20:09:21.225Z,1.71
2022-11-05T20:11:56.687Z,1.61
2022-11-05T20:14:30.066Z,1.70
2022-11-05T20:17:02.486Z,1.70
2022-11-05T20:19:35.548Z,1.69
2022-11-05T20:22:07.985Z,1.69
2022-11-05T20:24:42.036Z,1.68
2022-11-05T20:27:14.514Z,1.69
2022-11-05T20:29:46.857Z,1.68
2022-11-05T20:32:19.384Z,1.67
2022-11-05T20:34:52.038Z,1.67
2022-11-05T20:37:24.476Z,1.66
2022-11-05T20:39:58.422Z,1.66
2022-11-05T20:42:30.992Z,1.66
2022-11-05T20:45:03.789Z,1.63
2022-11-05T20:47:37.732Z,1.65
2022-11-05T20:50:10.325Z,1.66
2022-11-05T20:52:43.810Z,1.65
2022-11-05T20:55:17.905Z,1.62
2022-11-05T20:57:50.363Z,1.18
2022-11-05T21:00:23.091Z,1.63
2022-11-05T21:02:55.613Z,1.64
2022-11-05T21:05:34.272Z,1.66
2022-11-05T21:08:07.881Z,1.67
2022-11-05T21:10:44.851Z,1.67
2022-11-05T21:13:21.070Z,1.67
2022-11-05T21:15:55.891Z,1.67
2022-11-05T21:18:30.333Z,1.66
2022-11-05T21:21:05.981Z,1.68
2022-11-05T21:23:38.572Z,1.71
2022-11-05T21:26:14.274Z,1.66
2022-11-05T21:28:47.116Z,1.69
2022-11-05T21:31:20.027Z,1.70
2022-11-05T21:33:55.199Z,1.69
2022-11-05T21:36:28.123Z,1.67
2022-11-05T21:39:00.643Z,1.65
2022-11-05T21:41:34.510Z,1.64
2022-11-05T21:44:06.931Z,1.65
2022-11-05T21:46:39.513Z,1.66
2022-11-05T21:49:11.953Z,1.66
2022-11-05T21:52:03.275Z,1.67
2022-11-05T21:55:07.979Z,1.69
2022-11-05T21:58:01.010Z,1.69
2022-11-05T22:00:33.476Z,1.68
2022-11-05T22:03:05.956Z,1.67
2022-11-05T22:05:38.350Z,1.64
2022-11-05T22:08:11.385Z,1.64
2022-11-05T22:10:44.053Z,1.64
2022-11-05T22:13:17.813Z,1.65
2022-11-05T22:15:59.268Z,1.66
2022-11-05T22:18:31.946Z,1.63
2022-11-05T22:21:04.696Z,1.65
2022-11-05T22:23:37.185Z,1.65
2022-11-05T22:26:09.679Z,1.66
2022-11-05T22:28:43.975Z,1.66
2022-11-05T22:31:17.276Z,1.66
2022-11-05T22:33:49.902Z,1.67
2022-11-05T22:36:22.438Z,1.63
2022-11-05T22:38:55.104Z,1.61
2022-11-05T22:41:27.530Z,1.56
2022-11-05T22:44:03.390Z,1.54
2022-11-05T22:46:36.181Z,1.52
2022-11-05T22:49:09.254Z,1.52
2022-11-05T22:51:41.825Z,1.54
2022-11-05T22:54:14.380Z,1.57
2022-11-05T22:56:46.852Z,1.58
2022-11-05T22:59:20.800Z,1.60
2022-11-05T23:01:53.409Z,1.62
2022-11-05T23:04:25.877Z,1.62
2022-11-05T23:07:17.014Z,1.62
2022-11-05T23:10:08.370Z,1.64
2022-11-05T23:12:42.934Z,1.64
2022-11-05T23:15:35.509Z,1.62
2022-11-05T23:18:27.752Z,1.61
2022-11-05T23:21:22.818Z,1.62
2022-11-05T23:24:04.713Z,1.60
2022-11-05T23:26:50.355Z,1.58
2022-11-05T23:29:26.091Z,1.58
2022-11-05T23:32:18.943Z,1.57
2022-11-05T23:34:51.740Z,1.57
2022-11-05T23:37:48.490Z,1.58
2022-11-05T23:40:22.748Z,1.57
2022-11-05T23:43:14.473Z,1.56
2022-11-05T23:46:05.663Z,1.55
2022-11-05T23:48:39.422Z,1.55
2022-11-05T23:51:12.691Z,1.57
2022-11-05T23:53:45.277Z,1.58
2022-11-05T23:56:17.816Z,1.59
2022-11-05T23:58:50.202Z,1.59
